Time;durP1;ratioP1;P1;durP2;ratioP2;P2;SDS_P1;SDS_P2;PMS_P1;PMS_P2;Temp;Humidity;BMP_temperature;BMP_pressure;BME280_temperature;BME280_humidity;BME280_pressure;Samples;Min_cycle;Max_cycle;Signal;HPM_P1;HPM_P2
2021/11/10 00:00:09;;;;;;;9.18;4.43;;;;;;;;;;5029243;28;20088;-68
2021/11/10 00:02:37;;;;;;;11.43;3.80;;;;;;;;;;5036846;23;20077;-82
2021/11/10 00:05:06;;;;;;;9.93;4.82;;;;;;;;;;4989559;28;20047;-82
2021/11/10 00:07:35;;;;;;;9.77;4.50;;;;;;;;;;5031791;23;20137;-68
2021/11/10 00:10:04;;;;;;;12.15;4.50;;;;;;;;;;5024608;28;20042;-68
2021/11/10 00:12:32;;;;;;;10.80;4.93;;;;;;;;;;5019158;28;20041;-68
2021/11/10 00:15:01;;;;;;;7.47;4.30;;;;;;;;;;5022631;28;20386;-68
2021/11/10 00:17:30;;;;;;;10.02;4.72;;;;;;;;;;5023439;28;20053;-68
2021/11/10 00:19:59;;;;;;;10.70;4.57;;;;;;;;;;5023193;28;20136;-68
2021/11/10 00:22:27;;;;;;;8.13;4.30;;;;;;;;;;5030327;28;20041;-68
2021/11/10 00:24:55;;;;;;;9.88;3.92;;;;;;;;;;5018702;28;20073;-68
2021/11/10 00:27:26;;;;;;;9.80;4.45;;;;;;;;;;5028028;28;20171;-68
2021/11/10 00:29:54;;;;;;;8.75;4.22;;;;;;;;;;5023320;28;20136;-68
2021/11/10 00:32:22;;;;;;;11.32;4.72;;;;;;;;;;5012767;28;20404;-68
2021/11/10 00:34:52;;;;;;;9.23;4.60;;;;;;;;;;5023558;28;20344;-68
2021/11/10 00:37:20;;;;;;;9.07;4.40;;;;;;;;;;5028913;28;20128;-68
2021/11/10 00:39:48;;;;;;;11.13;4.95;;;;;;;;;;5020030;28;20460;-68
2021/11/10 00:42:17;;;;;;;8.93;4.47;;;;;;;;;;5024053;28;20110;-68
2021/11/10 00:44:45;;;;;;;11.48;4.82;;;;;;;;;;5023860;28;20143;-68
2021/11/10 00:47:13;;;;;;;8.93;4.68;;;;;;;;;;5029711;28;20144;-68
2021/11/10 00:49:42;;;;;;;7.82;4.50;;;;;;;;;;5016433;28;20050;-68
2021/11/10 00:52:11;;;;;;;10.88;4.68;;;;;;;;;;5023431;28;20068;-68
2021/11/10 00:54:40;;;;;;;11.88;4.80;;;;;;;;;;5028054;28;20574;-68
2021/11/10 00:57:08;;;;;;;13.50;4.88;;;;;;;;;;5027530;28;20053;-68
2021/11/10 00:59:37;;;;;;;11.73;5.30;;;;;;;;;;5015320;28;20385;-68
2021/11/10 01:02:06;;;;;;;8.10;4.50;;;;;;;;;;5014638;28;20498;-68
2021/11/10 01:04:34;;;;;;;11.02;5.20;;;;;;;;;;5026875;28;20091;-68
2021/11/10 01:07:03;;;;;;;8.50;4.63;;;;;;;;;;5025370;28;20192;-68
2021/11/10 01:09:39;;;;;;;12.57;5.00;;;;;;;;;;5030283;28;20553;-69
2021/11/10 01:12:08;;;;;;;10.25;4.63;;;;;;;;;;5028492;28;20045;-68
2021/11/10 01:14:36;;;;;;;11.40;4.78;;;;;;;;;;5029310;28;20128;-69
2021/11/10 01:17:05;;;;;;;11.13;4.93;;;;;;;;;;5029408;28;20065;-68
2021/11/10 01:19:34;;;;;;;10.60;5.43;;;;;;;;;;5029494;28;20231;-68
2021/11/10 01:22:02;;;;;;;11.98;5.65;;;;;;;;;;5028654;28;20045;-68
2021/11/10 01:24:32;;;;;;;12.60;5.32;;;;;;;;;;5029864;28;20132;-69
2021/11/10 01:27:01;;;;;;;12.52;5.50;;;;;;;;;;5029724;28;20050;-68
2021/11/10 01:29:36;;;;;;;8.85;4.98;;;;;;;;;;470390;28;10022747;-68
2021/11/10 01:32:05;;;;;;;16.55;5.57;;;;;;;;;;5008240;28;20251;-68
2021/11/10 01:34:34;;;;;;;9.15;4.82;;;;;;;;;;5028258;28;20132;-68
2021/11/10 01:37:02;;;;;;;14.10;6.07;;;;;;;;;;5029641;28;20050;-68
2021/11/10 01:39:30;;;;;;;9.52;4.72;;;;;;;;;;5026561;28;20465;-68
2021/11/10 01:42:04;;;;;;;13.40;5.65;;;;;;;;;;5024708;28;20046;-69
2021/11/10 01:44:33;;;;;;;9.75;4.65;;;;;;;;;;5029494;28;20095;-68
2021/11/10 01:47:04;;;;;;;10.32;5.78;;;;;;;;;;5029072;28;20049;-68
2021/11/10 01:49:33;;;;;;;12.35;5.35;;;;;;;;;;5030997;28;20077;-68
2021/11/10 01:52:02;;;;;;;10.93;5.28;;;;;;;;;;5032394;28;20049;-68
2021/11/10 01:54:32;;;;;;;9.90;5.10;;;;;;;;;;5031907;28;20071;-69
2021/11/10 01:57:02;;;;;;;10.50;5.43;;;;;;;;;;5020922;28;20571;-69
2021/11/10 01:59:31;;;;;;;11.07;5.22;;;;;;;;;;5032193;28;20363;-68
2021/11/10 02:02:01;;;;;;;13.20;6.30;;;;;;;;;;5032633;28;20041;-69
2021/11/10 02:04:30;;;;;;;13.02;6.05;;;;;;;;;;5029109;28;20048;-68
2021/11/10 02:06:59;;;;;;;10.18;5.53;;;;;;;;;;5027602;28;20153;-68
2021/11/10 02:09:27;;;;;;;13.63;5.68;;;;;;;;;;5030891;28;20457;-68
2021/11/10 02:11:56;;;;;;;10.07;5.32;;;;;;;;;;5032716;28;20124;-68
2021/11/10 02:14:27;;;;;;;12.40;5.72;;;;;;;;;;5031836;28;20484;-68
2021/11/10 02:16:56;;;;;;;11.07;5.65;;;;;;;;;;5031685;28;20076;-68
2021/11/10 02:19:27;;;;;;;16.23;6.15;;;;;;;;;;5031744;28;20495;-68
2021/11/10 02:21:58;;;;;;;15.60;5.68;;;;;;;;;;5032655;28;20038;-68
2021/11/10 02:24:29;;;;;;;13.60;6.60;;;;;;;;;;5032161;28;20088;-68
2021/11/10 02:26:57;;;;;;;12.98;5.78;;;;;;;;;;5032214;28;20047;-68
2021/11/10 02:29:26;;;;;;;15.40;6.32;;;;;;;;;;5032580;28;20055;-68
2021/11/10 02:31:55;;;;;;;12.23;5.22;;;;;;;;;;5031785;28;20081;-67
2021/11/10 02:34:24;;;;;;;18.33;5.82;;;;;;;;;;5031687;28;20058;-68
2021/11/10 02:36:52;;;;;;;14.68;6.32;;;;;;;;;;5032476;28;20081;-68
2021/11/10 02:39:23;;;;;;;13.68;6.38;;;;;;;;;;5032377;28;20144;-67
2021/11/10 02:41:52;;;;;;;15.27;6.50;;;;;;;;;;5031263;28;20293;-68
2021/11/10 02:44:22;;;;;;;14.70;6.55;;;;;;;;;;5033931;28;20077;-68
2021/11/10 02:46:51;;;;;;;12.48;5.65;;;;;;;;;;5024962;28;20141;-68
2021/11/10 02:49:20;;;;;;;16.90;6.38;;;;;;;;;;5032212;28;20049;-68
2021/11/10 02:52:06;;;;;;;13.27;6.00;;;;;;;;;;5031094;28;20140;-67
2021/11/10 02:54:37;;;;;;;13.13;6.47;;;;;;;;;;5032857;28;20049;-68
2021/11/10 02:57:06;;;;;;;9.75;5.40;;;;;;;;;;5030982;28;20060;-68
2021/11/10 02:59:35;;;;;;;17.08;6.80;;;;;;;;;;5031669;28;20407;-68
2021/11/10 03:02:05;;;;;;;11.65;5.93;;;;;;;;;;5030691;28;20061;-68
2021/11/10 03:04:34;;;;;;;9.40;5.40;;;;;;;;;;5031280;28;20064;-69
2021/11/10 03:07:03;;;;;;;12.57;5.95;;;;;;;;;;5029864;28;20059;-68
2021/11/10 03:09:32;;;;;;;11.32;5.72;;;;;;;;;;5032094;28;20129;-69
2021/11/10 03:12:03;;;;;;;13.00;5.88;;;;;;;;;;5029355;28;20115;-69
2021/11/10 03:14:32;;;;;;;12.43;6.30;;;;;;;;;;5031115;28;20100;-68
2021/11/10 03:17:01;;;;;;;12.60;5.35;;;;;;;;;;5030597;28;20051;-68
2021/11/10 03:19:29;;;;;;;10.55;5.93;;;;;;;;;;5031103;28;20570;-68
2021/11/10 03:21:58;;;;;;;13.00;5.60;;;;;;;;;;5032295;28;20132;-68
2021/11/10 03:24:26;;;;;;;13.73;6.20;;;;;;;;;;5030470;28;20080;-68
2021/11/10 03:26:55;;;;;;;12.18;5.55;;;;;;;;;;5031547;28;20140;-68
2021/11/10 03:29:25;;;;;;;9.98;5.38;;;;;;;;;;5029867;28;20114;-68
2021/11/10 03:31:53;;;;;;;10.80;5.30;;;;;;;;;;5031161;28;20448;-68
2021/11/10 03:34:22;;;;;;;13.55;5.68;;;;;;;;;;5030783;28;20050;-67
2021/11/10 03:36:51;;;;;;;10.85;6.22;;;;;;;;;;5030085;28;20175;-68
2021/11/10 03:39:19;;;;;;;13.93;5.97;;;;;;;;;;5029224;28;20484;-69
2021/11/10 03:41:48;;;;;;;15.88;6.13;;;;;;;;;;5030567;28;20488;-68
2021/11/10 03:44:16;;;;;;;11.57;6.15;;;;;;;;;;5030696;28;20049;-68
2021/11/10 03:46:46;;;;;;;13.10;5.72;;;;;;;;;;5031661;28;20160;-68
2021/11/10 03:49:15;;;;;;;14.48;5.57;;;;;;;;;;5030191;28;20056;-69
2021/11/10 03:51:43;;;;;;;16.58;6.82;;;;;;;;;;5028631;28;20054;-68
2021/11/10 03:54:12;;;;;;;11.25;6.40;;;;;;;;;;5030012;28;20038;-68
2021/11/10 03:56:40;;;;;;;14.80;6.13;;;;;;;;;;5016288;28;20049;-68
2021/11/10 03:59:09;;;;;;;13.30;6.75;;;;;;;;;;5030737;28;20144;-68
2021/11/10 04:01:37;;;;;;;12.00;6.18;;;;;;;;;;5029258;28;20175;-68
2021/11/10 04:04:07;;;;;;;16.60;6.13;;;;;;;;;;5029642;28;20038;-67
2021/11/10 04:06:35;;;;;;;11.75;5.82;;;;;;;;;;5030669;28;20136;-68
2021/11/10 04:09:04;;;;;;;13.32;6.15;;;;;;;;;;5028725;28;20144;-68
2021/11/10 04:11:32;;;;;;;12.20;6.47;;;;;;;;;;5029700;28;20172;-68
2021/11/10 04:14:02;;;;;;;18.58;6.40;;;;;;;;;;5029101;28;20107;-68
2021/11/10 04:16:31;;;;;;;17.63;6.75;;;;;;;;;;5025951;28;20136;-68
2021/11/10 04:18:59;;;;;;;14.10;6.32;;;;;;;;;;5029845;28;20052;-67
2021/11/10 04:21:31;;;;;;;14.55;6.53;;;;;;;;;;5030797;28;20068;-68
2021/11/10 04:23:59;;;;;;;14.52;6.03;;;;;;;;;;5027705;28;20063;-69
2021/11/10 04:26:28;;;;;;;13.68;6.53;;;;;;;;;;5030589;28;20137;-67
2021/11/10 04:28:57;;;;;;;15.23;6.38;;;;;;;;;;5029142;28;20093;-68
2021/11/10 04:31:26;;;;;;;21.05;7.05;;;;;;;;;;5029895;28;20393;-68
2021/11/10 04:33:55;;;;;;;17.27;6.30;;;;;;;;;;5029806;28;20063;-68
2021/11/10 04:36:25;;;;;;;13.02;6.50;;;;;;;;;;5031023;28;20045;-68
2021/11/10 04:38:55;;;;;;;13.18;6.78;;;;;;;;;;5028620;28;20060;-67
2021/11/10 04:41:25;;;;;;;11.85;6.50;;;;;;;;;;5029842;28;20069;-68
2021/11/10 04:43:53;;;;;;;10.48;5.97;;;;;;;;;;5030206;28;20136;-67
2021/11/10 04:46:25;;;;;;;9.90;5.35;;;;;;;;;;5030780;28;20400;-68
2021/11/10 04:48:54;;;;;;;12.82;6.45;;;;;;;;;;5028844;28;20045;-68
2021/11/10 04:51:28;;;;;;;13.27;6.57;;;;;;;;;;5033477;28;20055;-68
2021/11/10 04:53:58;;;;;;;15.00;6.43;;;;;;;;;;5028833;28;20059;-68
2021/11/10 04:56:27;;;;;;;13.10;6.22;;;;;;;;;;5030312;28;20053;-67
2021/11/10 04:58:55;;;;;;;14.02;6.55;;;;;;;;;;5028385;28;20128;-68
2021/11/10 05:01:26;;;;;;;12.35;6.13;;;;;;;;;;5028217;28;20055;-68
2021/11/10 05:03:55;;;;;;;12.57;5.88;;;;;;;;;;5029290;28;20358;-68
2021/11/10 05:06:24;;;;;;;10.82;5.60;;;;;;;;;;5029954;28;20057;-68
2021/11/10 05:08:53;;;;;;;11.65;6.38;;;;;;;;;;5028782;28;20049;-67
2021/11/10 05:11:22;;;;;;;17.55;6.88;;;;;;;;;;5029548;28;20049;-68
2021/11/10 05:13:51;;;;;;;11.77;5.65;;;;;;;;;;5027435;28;20409;-68
2021/11/10 05:16:19;;;;;;;11.65;5.75;;;;;;;;;;5027864;28;20519;-68
2021/11/10 05:18:48;;;;;;;14.95;6.28;;;;;;;;;;5029434;28;20378;-68
2021/11/10 05:21:21;;;;;;;14.63;5.68;;;;;;;;;;5029729;28;20481;-67
2021/11/10 05:23:49;;;;;;;12.00;6.15;;;;;;;;;;5028422;28;20087;-68
2021/11/10 05:26:17;;;;;;;13.98;6.18;;;;;;;;;;5029075;28;20941;-69
2021/11/10 05:28:47;;;;;;;15.55;5.80;;;;;;;;;;5028470;28;20052;-67
2021/11/10 05:31:16;;;;;;;13.88;6.30;;;;;;;;;;5030556;28;20045;-67
2021/11/10 05:33:44;;;;;;;9.93;5.85;;;;;;;;;;5029451;28;20087;-67
2021/11/10 05:36:13;;;;;;;12.63;5.65;;;;;;;;;;5028604;28;20100;-67
2021/11/10 05:38:41;;;;;;;18.60;6.45;;;;;;;;;;5026381;28;20481;-67
2021/11/10 05:41:09;;;;;;;14.90;6.60;;;;;;;;;;5019512;28;20100;-67
2021/11/10 05:43:38;;;;;;;13.30;6.22;;;;;;;;;;5024366;28;20054;-67
2021/11/10 05:46:07;;;;;;;12.52;5.63;;;;;;;;;;5024398;28;20045;-67
2021/11/10 05:48:36;;;;;;;12.73;6.72;;;;;;;;;;5029074;28;20071;-67
2021/11/10 05:51:06;;;;;;;15.20;6.03;;;;;;;;;;5025964;28;20124;-68
2021/11/10 05:53:38;;;;;;;15.80;6.63;;;;;;;;;;5026124;28;20089;-67
2021/11/10 05:56:06;;;;;;;11.82;5.72;;;;;;;;;;5030782;28;20107;-67
2021/11/10 05:58:38;;;;;;;12.60;5.57;;;;;;;;;;5029404;28;20050;-67
2021/11/10 06:01:07;;;;;;;13.10;6.22;;;;;;;;;;5029639;28;20065;-67
2021/11/10 06:03:36;;;;;;;12.63;6.25;;;;;;;;;;5029182;28;20046;-67
2021/11/10 06:06:04;;;;;;;16.10;6.45;;;;;;;;;;5029180;28;20045;-68
2021/11/10 06:08:36;;;;;;;16.08;7.25;;;;;;;;;;5028011;28;20119;-68
2021/11/10 06:11:07;;;;;;;14.90;6.88;;;;;;;;;;5021314;28;20049;-68
2021/11/10 06:13:35;;;;;;;14.65;6.22;;;;;;;;;;5025072;28;20072;-67
2021/11/10 06:16:04;;;;;;;17.20;7.13;;;;;;;;;;5040316;28;20131;-67
2021/11/10 06:18:34;;;;;;;14.10;5.75;;;;;;;;;;5027926;28;20399;-68
2021/11/10 06:21:03;;;;;;;18.42;6.75;;;;;;;;;;5039316;28;20057;-67
2021/11/10 06:23:31;;;;;;;16.83;5.65;;;;;;;;;;5025612;28;20147;-68
2021/11/10 06:26:00;;;;;;;13.20;5.60;;;;;;;;;;5025685;28;20129;-67
2021/11/10 06:28:28;;;;;;;14.02;6.45;;;;;;;;;;5025797;28;20061;-68
2021/11/10 06:30:56;;;;;;;11.35;6.30;;;;;;;;;;5025966;28;20132;-67
2021/11/10 06:33:29;;;;;;;13.02;5.85;;;;;;;;;;5025469;28;20068;-67
2021/11/10 06:35:59;;;;;;;16.58;6.00;;;;;;;;;;5022904;28;20209;-67
2021/11/10 06:38:27;;;;;;;18.30;6.90;;;;;;;;;;5036315;28;20141;-67
2021/11/10 06:40:56;;;;;;;14.48;6.55;;;;;;;;;;5029035;28;20057;-67
2021/11/10 06:43:26;;;;;;;11.57;5.53;;;;;;;;;;5031615;28;20480;-67
2021/11/10 06:45:54;;;;;;;16.88;6.28;;;;;;;;;;5029877;28;20103;-67
2021/11/10 06:48:22;;;;;;;19.13;7.28;;;;;;;;;;5028769;28;20527;-67
2021/11/10 06:50:51;;;;;;;12.57;5.55;;;;;;;;;;5029047;28;20322;-67
2021/11/10 06:53:21;;;;;;;16.90;6.50;;;;;;;;;;5022216;28;20049;-67
2021/11/10 06:55:49;;;;;;;14.93;6.50;;;;;;;;;;5041196;28;20064;-67
2021/11/10 06:58:17;;;;;;;12.35;6.35;;;;;;;;;;5028096;28;20053;-67
2021/11/10 07:00:45;;;;;;;12.82;5.80;;;;;;;;;;5029226;28;20073;-67
2021/11/10 07:03:14;;;;;;;17.48;6.28;;;;;;;;;;5029156;28;20056;-68
2021/11/10 07:05:42;;;;;;;14.95;6.30;;;;;;;;;;5029530;28;20133;-67
2021/11/10 07:08:11;;;;;;;12.23;5.85;;;;;;;;;;5028495;28;20095;-67
2021/11/10 07:10:40;;;;;;;12.30;5.97;;;;;;;;;;5027511;28;20137;-67
2021/11/10 07:13:09;;;;;;;14.07;6.13;;;;;;;;;;5028516;28;20399;-67
2021/11/10 07:15:37;;;;;;;13.43;6.05;;;;;;;;;;5020860;28;20046;-67
2021/11/10 07:18:05;;;;;;;12.45;5.90;;;;;;;;;;5024633;28;20057;-68
2021/11/10 07:20:34;;;;;;;14.45;6.15;;;;;;;;;;5023402;28;20133;-67
2021/11/10 07:23:02;;;;;;;12.70;6.70;;;;;;;;;;5014799;28;20135;-68
2021/11/10 07:25:30;;;;;;;12.02;5.90;;;;;;;;;;5026682;28;20057;-67
2021/11/10 07:28:00;;;;;;;12.55;6.25;;;;;;;;;;5020738;28;20168;-67
2021/11/10 07:30:29;;;;;;;17.13;6.35;;;;;;;;;;5026418;28;20099;-67
2021/11/10 07:32:57;;;;;;;15.32;6.72;;;;;;;;;;5026516;28;20503;-67
2021/11/10 07:35:27;;;;;;;12.98;6.43;;;;;;;;;;5026509;28;20127;-67
2021/11/10 07:37:56;;;;;;;16.02;6.65;;;;;;;;;;5025446;28;20650;-68
2021/11/10 07:40:25;;;;;;;13.43;7.20;;;;;;;;;;5025868;28;20515;-67
2021/11/10 07:42:54;;;;;;;15.60;6.60;;;;;;;;;;5026559;28;20140;-67
2021/11/10 07:45:30;;;;;;;18.38;6.55;;;;;;;;;;5024091;28;20052;-67
2021/11/10 07:47:59;;;;;;;15.48;6.53;;;;;;;;;;5026520;28;20093;-69
2021/11/10 07:50:28;;;;;;;16.83;6.57;;;;;;;;;;5013492;28;20443;-67
2021/11/10 07:52:57;;;;;;;17.60;7.15;;;;;;;;;;5023936;28;20127;-67
2021/11/10 07:55:26;;;;;;;17.33;6.88;;;;;;;;;;5024955;28;20487;-67
2021/11/10 07:57:55;;;;;;;13.05;7.05;;;;;;;;;;5025405;28;20167;-67
2021/11/10 08:00:42;;;;;;;13.80;6.38;;;;;;;;;;5020552;28;20060;-68
2021/11/10 08:03:11;;;;;;;12.98;5.93;;;;;;;;;;5025008;28;20413;-69
2021/11/10 08:05:39;;;;;;;19.27;6.53;;;;;;;;;;5025162;28;20413;-67
2021/11/10 08:08:08;;;;;;;14.95;6.78;;;;;;;;;;5025141;28;20092;-67
2021/11/10 08:10:52;;;;;;;12.63;6.82;;;;;;;;;;5019241;28;20041;-67
2021/11/10 08:13:21;;;;;;;18.23;7.57;;;;;;;;;;5025124;28;20069;-67
2021/11/10 08:15:52;;;;;;;15.60;6.88;;;;;;;;;;5026212;28;20452;-67
2021/11/10 08:18:20;;;;;;;13.60;7.15;;;;;;;;;;5024767;28;20075;-67
2021/11/10 08:20:49;;;;;;;14.25;6.00;;;;;;;;;;5026124;28;20132;-68
2021/11/10 08:23:20;;;;;;;13.05;6.32;;;;;;;;;;5024363;28;20500;-67
2021/11/10 08:25:49;;;;;;;17.80;7.70;;;;;;;;;;5026312;28;20107;-68
2021/11/10 08:28:18;;;;;;;11.88;7.07;;;;;;;;;;5021419;28;20042;-68
2021/11/10 08:30:46;;;;;;;17.17;7.43;;;;;;;;;;5018166;28;20127;-68
2021/11/10 08:33:17;;;;;;;18.05;7.30;;;;;;;;;;5027016;28;20045;-67
2021/11/10 08:35:47;;;;;;;17.25;7.95;;;;;;;;;;5030243;28;20148;-68
2021/11/10 08:38:15;;;;;;;20.70;8.68;;;;;;;;;;5027765;28;20095;-67
2021/11/10 08:40:44;;;;;;;14.68;6.57;;;;;;;;;;5014702;28;20127;-67
2021/11/10 08:43:14;;;;;;;14.93;6.78;;;;;;;;;;5027274;28;20053;-68
2021/11/10 08:45:45;;;;;;;17.23;7.32;;;;;;;;;;5028066;28;20045;-67
2021/11/10 08:48:13;;;;;;;24.73;7.65;;;;;;;;;;5024551;28;20049;-67
2021/11/10 08:50:45;;;;;;;17.92;7.32;;;;;;;;;;5021203;28;20042;-67
2021/11/10 08:53:18;;;;;;;21.48;8.48;;;;;;;;;;5034234;28;20045;-67
2021/11/10 08:55:47;;;;;;;20.83;8.13;;;;;;;;;;5029390;28;20077;-68
2021/11/10 08:58:17;;;;;;;23.55;8.80;;;;;;;;;;5027401;28;20517;-68
2021/11/10 09:00:47;;;;;;;22.75;8.98;;;;;;;;;;5022262;28;20060;-67
2021/11/10 09:03:16;;;;;;;17.67;7.95;;;;;;;;;;5016484;28;20049;-67
2021/11/10 09:05:46;;;;;;;14.70;7.85;;;;;;;;;;5027868;28;20049;-67
2021/11/10 09:08:15;;;;;;;19.35;7.28;;;;;;;;;;5019459;28;20144;-68
2021/11/10 09:10:44;;;;;;;18.23;7.35;;;;;;;;;;5028203;28;20061;-67
2021/11/10 09:13:12;;;;;;;18.45;8.25;;;;;;;;;;5027281;28;20034;-67
2021/11/10 09:15:43;;;;;;;18.92;8.38;;;;;;;;;;5028558;28;20057;-67
2021/11/10 09:18:11;;;;;;;17.92;8.35;;;;;;;;;;5027685;28;20479;-67
2021/11/10 09:20:41;;;;;;;23.92;8.05;;;;;;;;;;5026951;28;21339;-67
2021/11/10 09:23:15;;;;;;;19.92;8.02;;;;;;;;;;5026619;28;20049;-67
2021/11/10 09:25:45;;;;;;;18.40;7.95;;;;;;;;;;5022840;28;20060;-67
2021/11/10 09:28:15;;;;;;;23.98;8.25;;;;;;;;;;5021502;28;20531;-68
2021/11/10 09:30:44;;;;;;;19.23;8.63;;;;;;;;;;5028464;28;20077;-67
2021/11/10 09:33:15;;;;;;;20.30;8.82;;;;;;;;;;5026938;28;20057;-68
2021/11/10 09:35:45;;;;;;;19.73;8.25;;;;;;;;;;5025851;28;20426;-69
2021/11/10 09:38:15;;;;;;;23.80;9.15;;;;;;;;;;5019729;28;20038;-68
2021/11/10 09:40:44;;;;;;;25.80;8.05;;;;;;;;;;5031079;28;20095;-67
2021/11/10 09:43:15;;;;;;;15.93;7.03;;;;;;;;;;5026421;28;20084;-66
2021/11/10 09:45:45;;;;;;;18.13;7.85;;;;;;;;;;5025165;28;20114;-67
2021/11/10 09:48:14;;;;;;;16.15;7.25;;;;;;;;;;5018376;28;20050;-66
2021/11/10 09:50:45;;;;;;;22.67;8.18;;;;;;;;;;5010627;28;20044;-67
2021/11/10 09:53:16;;;;;;;16.33;6.47;;;;;;;;;;5026459;28;20136;-67
2021/11/10 09:55:44;;;;;;;16.50;6.88;;;;;;;;;;5027789;28;20057;-67
2021/11/10 09:58:14;;;;;;;16.77;7.30;;;;;;;;;;5027342;28;20057;-66
2021/11/10 10:00:44;;;;;;;11.05;6.15;;;;;;;;;;5028430;28;20075;-67
2021/11/10 10:03:13;;;;;;;10.27;5.35;;;;;;;;;;5024167;28;20041;-67
2021/11/10 10:05:44;;;;;;;13.30;6.72;;;;;;;;;;5024227;28;20070;-67
2021/11/10 10:08:13;;;;;;;13.13;5.68;;;;;;;;;;5026183;28;20065;-67
2021/11/10 10:10:44;;;;;;;12.88;5.97;;;;;;;;;;5026928;28;20054;-67
2021/11/10 10:13:12;;;;;;;14.80;6.28;;;;;;;;;;5016888;28;20041;-67
2021/11/10 10:15:42;;;;;;;14.95;5.78;;;;;;;;;;5031592;28;20046;-67
2021/11/10 10:18:15;;;;;;;13.90;6.40;;;;;;;;;;5028743;28;20054;-67
2021/11/10 10:20:44;;;;;;;13.35;6.35;;;;;;;;;;5022384;28;20540;-67
2021/11/10 10:23:14;;;;;;;15.10;6.40;;;;;;;;;;5019585;28;20050;-67
2021/11/10 10:25:45;;;;;;;13.48;5.50;;;;;;;;;;5018437;28;20091;-67
2021/11/10 10:28:15;;;;;;;11.50;5.45;;;;;;;;;;5028506;28;20080;-67
2021/11/10 10:30:45;;;;;;;14.25;5.35;;;;;;;;;;5030966;28;20041;-67
2021/11/10 10:33:14;;;;;;;10.38;5.25;;;;;;;;;;5032225;28;20114;-67
2021/11/10 10:35:45;;;;;;;10.18;5.22;;;;;;;;;;5029183;28;20045;-67
2021/11/10 10:38:14;;;;;;;15.13;5.85;;;;;;;;;;5030155;28;20049;-67
2021/11/10 10:40:44;;;;;;;14.57;5.95;;;;;;;;;;5031071;28;20054;-67
2021/11/10 10:43:14;;;;;;;13.40;5.10;;;;;;;;;;5030229;28;20456;-67
2021/11/10 10:45:44;;;;;;;15.10;6.00;;;;;;;;;;5031862;28;20053;-67
2021/11/10 10:48:14;;;;;;;10.98;5.18;;;;;;;;;;5031259;28;20045;-67
2021/11/10 10:50:44;;;;;;;15.55;5.60;;;;;;;;;;5031006;28;20047;-69
2021/11/10 10:53:14;;;;;;;10.70;4.57;;;;;;;;;;5023220;28;20404;-69
2021/11/10 10:55:43;;;;;;;11.18;4.68;;;;;;;;;;5030495;28;20113;-70
2021/11/10 10:58:14;;;;;;;10.90;5.13;;;;;;;;;;5030680;28;20046;-69
2021/11/10 11:00:43;;;;;;;9.07;4.70;;;;;;;;;;5028469;28;20476;-69
2021/11/10 11:03:31;;;;;;;8.95;4.03;;;;;;;;;;5029802;28;20069;-70
2021/11/10 11:06:00;;;;;;;11.13;4.90;;;;;;;;;;5028618;28;20128;-69
2021/11/10 11:08:33;;;;;;;10.85;4.75;;;;;;;;;;5029726;28;20049;-70
2021/11/10 11:11:02;;;;;;;9.95;4.70;;;;;;;;;;5025479;28;20084;-69
2021/11/10 11:13:45;;;;;;;12.05;4.72;;;;;;;;;;5028702;28;20045;-70
2021/11/10 11:16:17;;;;;;;9.90;4.07;;;;;;;;;;5030991;28;20053;-70
2021/11/10 11:18:46;;;;;;;10.82;5.63;;;;;;;;;;5029896;28;20120;-69
2021/11/10 11:21:22;;;;;;;11.10;5.07;;;;;;;;;;5029422;28;20061;-70
2021/11/10 11:23:51;;;;;;;12.98;5.68;;;;;;;;;;5027770;28;20188;-70
2021/11/10 11:26:32;;;;;;;13.95;5.28;;;;;;;;;;5030385;28;20441;-70
2021/11/10 11:29:18;;;;;;;10.90;5.20;;;;;;;;;;5031009;28;20127;-70
2021/11/10 11:31:46;;;;;;;8.98;4.65;;;;;;;;;;5020027;28;20061;-70
2021/11/10 11:34:15;;;;;;;11.82;5.20;;;;;;;;;;5030360;28;20103;-70
2021/11/10 11:36:51;;;;;;;12.63;5.28;;;;;;;;;;5031313;28;20046;-70
2021/11/10 11:39:21;;;;;;;8.00;4.82;;;;;;;;;;5031701;28;20499;-70
2021/11/10 11:41:50;;;;;;;11.55;5.13;;;;;;;;;;5028382;28;20053;-70
2021/11/10 11:44:20;;;;;;;12.55;5.18;;;;;;;;;;5030048;28;20169;-69
2021/11/10 11:46:50;;;;;;;11.23;4.65;;;;;;;;;;5031239;28;20072;-70
2021/11/10 11:49:18;;;;;;;16.20;5.03;;;;;;;;;;5029967;28;20649;-70
2021/11/10 11:51:46;;;;;;;19.73;5.93;;;;;;;;;;5029642;28;20088;-69
2021/11/10 11:54:16;;;;;;;14.35;5.15;;;;;;;;;;5020324;28;20045;-70
2021/11/10 11:56:44;;;;;;;9.80;4.68;;;;;;;;;;5028805;28;20544;-69
2021/11/10 11:59:14;;;;;;;7.85;5.00;;;;;;;;;;5018821;28;20089;-69
2021/11/10 12:01:44;;;;;;;10.88;4.32;;;;;;;;;;5022941;28;20049;-69
2021/11/10 12:04:14;;;;;;;10.65;5.35;;;;;;;;;;5029623;28;20053;-69
2021/11/10 12:06:47;;;;;;;11.50;5.22;;;;;;;;;;5025996;28;20049;-70
2021/11/10 12:09:17;;;;;;;7.95;4.95;;;;;;;;;;5015753;28;20512;-69
2021/11/10 12:11:49;;;;;;;9.63;4.85;;;;;;;;;;5029349;28;20053;-69
2021/11/10 12:14:19;;;;;;;10.20;4.20;;;;;;;;;;5024292;28;20080;-70
2021/11/10 12:16:51;;;;;;;9.40;4.88;;;;;;;;;;5029101;28;20095;-69
2021/11/10 12:19:23;;;;;;;8.27;4.35;;;;;;;;;;5029369;28;20064;-68
2021/11/10 12:21:54;;;;;;;9.15;4.80;;;;;;;;;;5027349;28;20062;-69
2021/11/10 12:24:23;;;;;;;8.70;4.70;;;;;;;;;;5027751;28;20047;-69
2021/11/10 12:27:14;;;;;;;16.33;8.23;;;;;;;;;;5027881;28;20488;-69
2021/11/10 12:29:44;;;;;;;13.80;5.82;;;;;;;;;;5026180;28;20247;-69
2021/11/10 12:32:14;;;;;;;11.88;6.03;;;;;;;;;;5026715;28;20076;-69
2021/11/10 12:34:42;;;;;;;11.32;5.40;;;;;;;;;;5021818;28;20053;-70
2021/11/10 12:37:10;;;;;;;10.50;5.22;;;;;;;;;;5028097;28;20046;-69
2021/11/10 12:39:40;;;;;;;13.63;5.63;;;;;;;;;;5018103;28;20062;-69
2021/11/10 12:42:09;;;;;;;9.05;4.60;;;;;;;;;;5030730;28;20045;-69
2021/11/10 12:44:39;;;;;;;12.30;5.57;;;;;;;;;;5026731;28;20041;-69
2021/11/10 12:47:08;;;;;;;8.45;4.53;;;;;;;;;;5025798;28;20132;-69
2021/11/10 12:49:38;;;;;;;11.88;5.28;;;;;;;;;;5029447;28;20546;-69
2021/11/10 12:52:16;;;;;;;12.73;5.35;;;;;;;;;;5019278;28;20064;-69
2021/11/10 12:54:46;;;;;;;11.15;5.32;;;;;;;;;;5029234;28;20056;-69
2021/11/10 12:57:29;;;;;;;9.98;5.40;;;;;;;;;;5025583;28;20056;-69
2021/11/10 12:59:57;;;;;;;11.45;5.07;;;;;;;;;;5027784;28;20559;-69
2021/11/10 13:02:26;;;;;;;11.10;5.20;;;;;;;;;;5026915;28;20096;-69
2021/11/10 13:04:58;;;;;;;10.13;4.82;;;;;;;;;;5028527;28;20053;-70
2021/11/10 13:07:31;;;;;;;10.18;5.50;;;;;;;;;;5036432;28;20057;-69
2021/11/10 13:10:04;;;;;;;8.68;4.25;;;;;;;;;;5042641;28;20484;-70
2021/11/10 13:12:34;;;;;;;11.70;5.47;;;;;;;;;;5024300;28;20049;-70
2021/11/10 13:15:03;;;;;;;8.95;5.22;;;;;;;;;;5028423;28;20141;-70
2021/11/10 13:17:32;;;;;;;9.15;5.28;;;;;;;;;;5031931;28;20041;-69
2021/11/10 13:20:04;;;;;;;12.35;5.93;;;;;;;;;;5028042;28;20053;-69
2021/11/10 13:22:35;;;;;;;10.50;6.82;;;;;;;;;;5027290;28;20081;-70
2021/11/10 13:25:07;;;;;;;12.25;6.32;;;;;;;;;;5028762;28;20046;-70
2021/11/10 13:27:37;;;;;;;14.75;7.65;;;;;;;;;;5022607;28;20061;-69
2021/11/10 13:30:29;;;;;;;14.68;6.95;;;;;;;;;;5025780;28;20573;-69
2021/11/10 13:32:58;;;;;;;13.15;6.55;;;;;;;;;;5023668;28;20103;-69
2021/11/10 13:35:30;;;;;;;14.13;7.35;;;;;;;;;;5013379;28;20442;-69
2021/11/10 13:37:58;;;;;;;10.93;6.25;;;;;;;;;;5029785;28;20060;-69
2021/11/10 13:40:27;;;;;;;13.73;6.80;;;;;;;;;;5028381;28;20045;-68
2021/11/10 13:42:56;;;;;;;12.60;6.50;;;;;;;;;;5040837;28;20151;-69
2021/11/10 13:45:26;;;;;;;12.60;6.95;;;;;;;;;;5029872;28;20106;-68
2021/11/10 13:47:55;;;;;;;13.00;6.68;;;;;;;;;;5041866;28;20409;-69
2021/11/10 13:50:26;;;;;;;11.95;6.47;;;;;;;;;;5038245;28;20169;-69
2021/11/10 13:53:03;;;;;;;17.02;7.40;;;;;;;;;;5030374;28;20045;-68
2021/11/10 13:55:31;;;;;;;12.27;7.03;;;;;;;;;;5040405;28;20045;-68
2021/11/10 13:58:06;;;;;;;11.90;6.72;;;;;;;;;;5020156;28;20054;-69
2021/11/10 14:00:34;;;;;;;16.85;7.22;;;;;;;;;;5016102;28;20045;-69
2021/11/10 14:03:03;;;;;;;13.82;6.97;;;;;;;;;;5030095;28;20053;-69
2021/11/10 14:05:31;;;;;;;12.90;6.47;;;;;;;;;;5035792;28;20046;-68
2021/11/10 14:08:00;;;;;;;12.18;6.50;;;;;;;;;;5043686;28;20106;-70
2021/11/10 14:10:32;;;;;;;11.15;7.10;;;;;;;;;;5043663;28;20041;-69
2021/11/10 14:13:01;;;;;;;16.55;7.03;;;;;;;;;;5047793;28;20077;-69
2021/11/10 14:15:31;;;;;;;13.60;6.65;;;;;;;;;;5047071;28;20045;-68
2021/11/10 14:18:01;;;;;;;16.63;6.68;;;;;;;;;;5047958;28;20045;-69
2021/11/10 14:20:31;;;;;;;12.85;6.32;;;;;;;;;;5046329;28;20045;-69
2021/11/10 14:23:01;;;;;;;10.13;5.82;;;;;;;;;;5047524;28;20045;-68
2021/11/10 14:25:33;;;;;;;15.57;6.85;;;;;;;;;;5047277;28;20557;-69
2021/11/10 14:28:03;;;;;;;11.88;6.43;;;;;;;;;;5047294;28;20049;-70
2021/11/10 14:30:32;;;;;;;13.48;6.55;;;;;;;;;;5038593;28;20051;-68
2021/11/10 14:33:02;;;;;;;15.05;6.70;;;;;;;;;;5047267;28;20045;-70
2021/11/10 14:35:37;;;;;;;14.30;6.40;;;;;;;;;;5048016;28;20045;-68
2021/11/10 14:38:10;;;;;;;14.07;5.97;;;;;;;;;;5046882;28;20045;-69
2021/11/10 14:40:45;;;;;;;13.73;6.32;;;;;;;;;;5051740;28;20044;-69
2021/11/10 14:43:13;;;;;;;;;;;;;;;;;;5062079;28;20056;-69
2021/11/10 14:45:44;;;;;;;13.93;6.60;;;;;;;;;;5047671;28;19924;-68